Flight Track Log - Related Links

Times and Time Zones

All times are in EDT time to prevent confusion due to time zone crossing. See the UAL204 flight status page for this flight to view local times or setup timezone preferences in your user account.

Time Position Orientation Groundspeed Altitude Reporting Facility
EDT Latitude Longitude Course Direction KTS MPH feet Rate Location/Type
Sun 06:53:53 AM 39.1833 -76.7500 256° West 202 232 2,500  Level Potomac TRACON
Sun 06:54:53 AM 39.2000 -76.8333 284° West 245 282 5,100 3,250 Climbing Potomac TRACON
Sun 06:55:00 AM 39.2000 -77.0264 270° West  Level FlightAware Approximate
Sun 06:55:53 AM 39.2167 -76.9167 284° West 245 282 9,000  Level Potomac TRACON
Sun 06:56:00 AM 39.2000 -77.1496 270° West  Level FlightAware Approximate
Sun 06:56:53 AM 39.1833 -77.0000 243° Southwest 286 329 10,600  Level Potomac TRACON
Sun 06:57:00 AM 39.1200 -77.2160 211° Southwest  Level FlightAware Approximate
Sun 06:58:00 AM 39.0382 -77.2795 211° Southwest  Level FlightAware Approximate
Sun 06:58:17 AM 39.1325 -77.1650 248° West 362 417 12,200  Level Washington Center
Sun 06:59:00 AM 38.9882 -77.3759 256° West  Level FlightAware Approximate
Sun 06:59:18 AM 39.1139 -77.2903 259° West 362 417 14,600  Level Washington Center
Sun 07:00:19 AM 39.1058 -77.4186 265° West 362 417 16,600 1,714 Climbing Washington Center
Sun 07:01:17 AM 39.0997 -77.5522 267° West 362 417 18,000 1,424 Climbing Washington Center
Sun 07:02:17 AM 39.0953 -77.6883 268° West 379 436 19,400 1,587 Climbing Washington Center
Sun 07:03:18 AM 39.0886 -77.8272 267° West 391 450 21,200 1,438 Climbing Washington Center
Sun 07:04:18 AM 39.0819 -77.9581 266° West 402 463 22,300 1,109 Climbing Washington Center
Sun 07:05:17 AM 39.0747 -78.1022 266° West 407 468 23,400 1,041 Climbing Washington Center
Sun 07:06:19 AM 39.0694 -78.2544 267° West 413 475 24,400 934 Climbing Washington Center
Sun 07:07:19 AM 39.0597 -78.4039 265° West 419 482 25,300 1,200 Climbing Washington Center
Sun 07:08:19 AM 39.0542 -78.5533 267° West 424 488 26,800 1,322 Climbing Washington Center
Sun 07:09:17 AM 39.0461 -78.7028 266° West 418 481 27,900 1,210 Climbing Washington Center
Sun 07:10:18 AM 39.0383 -78.8439 266° West 418 481 29,200 1,140 Climbing Washington Center
Sun 07:11:18 AM 39.0300 -78.9906 266° West 418 481 30,200 1,050 Climbing Washington Center
Sun 07:12:18 AM 39.0217 -79.1344 266° West 418 481 31,300 900 Climbing Washington Center
Sun 07:13:18 AM 39.0258 -79.2736 272° West 408 470 32,000 347 Climbing Washington Center
Sun 07:14:19 AM 39.0339 -79.4158 274° West 401 461 32,000  Level Washington Center
Sun 07:15:20 AM 39.0442 -79.5553 275° West 407 468 32,000  Level Washington Center
Sun 07:16:17 AM 39.0581 -79.6978 277° West 407 468 32,000  Level Washington Center
Sun 07:17:16 AM 39.0636 -79.8397 273° West 407 468 32,000  Level Washington Center
Sun 07:18:18 AM 39.0733 -79.9767 275° West 402 463 32,000  Level Washington Center
Sun 07:19:40 AM 39.0828 -80.1900 273° West 399 459 32,000  Level Indianapolis Center
Sun 07:20:41 AM 39.0900 -80.3317 274° West 399 459 32,000  Level Indianapolis Center
Sun 07:21:42 AM 39.0975 -80.4731 274° West 399 459 32,000  Level Indianapolis Center
Sun 07:22:43 AM 39.1372 -80.6050 291° West 402 463 32,000  Level Indianapolis Center
Sun 07:23:43 AM 39.1894 -80.7286 299° West 396 456 32,000  Level Indianapolis Center
Sun 07:24:44 AM 39.2431 -80.8517 299° West 396 456 32,000  Level Indianapolis Center
Sun 07:25:45 AM 39.2958 -80.9769 299° West 397 457 32,000  Level Indianapolis Center
Sun 07:26:46 AM 39.3494 -81.1017 299° West 397 457 32,000  Level Indianapolis Center
Sun 07:27:47 AM 39.4028 -81.2275 299° West 397 457 32,000  Level Indianapolis Center
Sun 07:28:48 AM 39.4561 -81.3531 299° West 397 457 32,000  Level Indianapolis Center
Sun 07:29:49 AM 39.5097 -81.4783 299° West 398 458 32,000  Level Indianapolis Center
Sun 07:30:50 AM 39.5631 -81.6042 299° West 398 458 32,000  Level Indianapolis Center
Sun 07:31:51 AM 39.6258 -81.7558 298° West 398 458 32,000  Level Indianapolis Center
Sun 07:32:52 AM 39.6792 -81.8811 299° West 398 458 32,000  Level Indianapolis Center
Sun 07:33:53 AM 39.7331 -82.0131 298° West 399 459 32,000  Level Indianapolis Center
Sun 07:34:53 AM 39.7853 -82.1408 298° West 400 460 32,000  Level Indianapolis Center
Sun 07:35:54 AM 39.8381 -82.2683 298° West 400 460 32,000  Level Indianapolis Center
Sun 07:36:55 AM 39.8906 -82.3967 298° West 400 460 32,000  Level Indianapolis Center
Sun 07:37:56 AM 39.9428 -82.5236 298° West 400 460 32,000  Level Indianapolis Center
Sun 07:38:57 AM 39.9944 -82.6514 298° West 400 460 32,000  Level Indianapolis Center
Sun 07:39:59 AM 40.0464 -82.7792 298° West 400 460 32,000  Level Indianapolis Center
Sun 07:41:00 AM 40.0972 -82.9061 298° West 400 460 32,000  Level Indianapolis Center
Sun 07:42:01 AM 40.1489 -83.0342 298° West 400 460 32,000  Level Indianapolis Center
Sun 07:43:02 AM 40.1997 -83.1614 298° West 400 460 32,000  Level Indianapolis Center
Sun 07:44:03 AM 40.2600 -83.3144 297° West 400 460 32,000  Level Indianapolis Center
Sun 07:45:04 AM 40.3100 -83.4406 298° West 399 459 32,000  Level Indianapolis Center
Sun 07:46:05 AM 40.3594 -83.5664 297° West 396 456 32,000  Level Indianapolis Center
Sun 07:47:06 AM 40.4100 -83.6950 297° West 396 456 32,000  Level Indianapolis Center
Sun 07:48:07 AM 40.4594 -83.8236 297° West 396 456 32,000  Level Indianapolis Center
Sun 07:49:09 AM 40.5111 -83.9528 298° West 397 457 32,000  Level Indianapolis Center
Sun 07:50:10 AM 40.5608 -84.0844 296° West 400 460 32,000  Level Indianapolis Center
Sun 07:51:11 AM 40.6114 -84.2172 297° West 405 466 32,000  Level Indianapolis Center
Sun 07:52:12 AM 40.6722 -84.3758 297° West 405 466 32,000  Level Indianapolis Center
Sun 07:53:13 AM 40.7231 -84.5083 297° West 405 466 32,000  Level Indianapolis Center
Sun 07:54:10 AM 40.7686 -84.6261 297° West 407 468 32,000  Level Chicago Center
Sun 07:55:11 AM 40.8186 -84.7578 297° West 406 467 32,000  Level Chicago Center
Sun 07:56:12 AM 40.8686 -84.8922 296° West 406 467 32,000  Level Chicago Center
Sun 07:57:13 AM 40.9186 -85.0267 296° West 406 467 32,000  Level Chicago Center
Sun 07:58:14 AM 40.9681 -85.1619 296° West 406 467 32,000  Level Chicago Center
Sun 07:59:15 AM 41.0186 -85.2975 296° West 407 468 32,000  Level Chicago Center
Sun 08:00:16 AM 41.0675 -85.4350 295° West 410 472 32,000  Level Chicago Center
Sun 08:01:17 AM 41.1172 -85.5719 296° West 411 473 32,000 -1,328 Level Chicago Center
Sun 08:02:18 AM 41.1667 -85.7086 296° West 412 474 29,300 -2,754 Descending Chicago Center
Sun 08:03:19 AM 41.2161 -85.8475 295° West 413 475 26,400 -2,115 Descending Chicago Center
Sun 08:04:20 AM 41.2647 -85.9817 296° West 406 467 25,000 -689 Descending Chicago Center
Sun 08:05:21 AM 41.2983 -86.1253 287° West 404 465 25,000  Level Chicago Center
Sun 08:06:22 AM 41.3292 -86.3003 283° West 402 463 25,000  Level Chicago Center
Sun 08:07:23 AM 41.3556 -86.4464 284° West 403 464 25,000 -393 Level Chicago Center
Sun 08:08:24 AM 41.3808 -86.5917 283° West 404 465 24,200 -1,672 Descending Chicago Center
Sun 08:09:25 AM 41.4072 -86.7225 285° West 401 461 21,600 -2,607 Descending Chicago Center
Sun 08:10:26 AM 41.4533 -86.8553 295° West 397 457 18,900 -2,705 Descending Chicago Center
Sun 08:11:27 AM 41.5053 -87.0053 295° West 394 453 16,100 -2,607 Descending Chicago Center
Sun 08:12:28 AM 41.5458 -87.1344 293° West 381 438 13,600 -2,213 Descending Chicago Center
Sun 08:13:29 AM 41.5950 -87.2606 298° West 356 410 11,600 -1,279 Descending Chicago Center
Sun 08:14:30 AM 41.6631 -87.3514 315° West 348 400 11,000 -295 Descending Chicago Center
Sun 08:15:31 AM 41.7283 -87.4328 317° Northwest 314 361 11,000  Level Chicago Center
Sun 08:16:32 AM 41.7886 -87.5011 320° Northwest 290 334 11,000  Level Chicago Center
Sun 08:17:33 AM 41.8556 -87.5747 321° Northwest 290 334 11,000  Level Chicago Center
Sun 08:18:35 AM 41.8861 -87.6561 297° West 250 288 11,000 -244 Level Chicago Center
Sun 08:19:36 AM 41.8856 -87.7369 269° West 219 252 10,500 -689 Descending Chicago Center
Sun 08:20:37 AM 41.8839 -87.8050 268° West 186 214 9,600 -1,033 Descending Chicago Center
Sun 08:21:38 AM 41.8836 -87.8778 270° West 184 212 8,400 -1,180 Descending Chicago Center
Sun 08:22:39 AM 41.8836 -87.9453 270° West 183 211 7,200 -885 Descending Chicago Center
Sun 08:23:40 AM 41.8836 -88.0111 270° West 180 207 6,600 -927 Descending Chicago Center
Sun 08:24:42 AM 41.8847 -88.0781 271° West 180 207 5,300 -1,268 Descending Chicago Center
Sun 08:25:43 AM 41.8878 -88.1556 273° West 196 226 4,000 -639 Descending Chicago Center
Sun 08:26:44 AM 41.9442 -88.1706 349° North 207 238 4,000 -295 Level Chicago Center
Sun 08:27:45 AM 41.9642 -88.1114 66° East 179 206 3,400 -738 Descending Chicago Center
Sun 08:28:46 AM 41.9653 -88.0553 88° East 154 177 2,500 -829 Descending Chicago Center
Sun 08:29:48 AM 41.9644 -88.0003 91° East 147 169 1,700 -732 Descending Chicago Center
Sun 08:30:49 AM 41.9642 -87.9506 90° East 129 148 1,000 -443 Descending Chicago Center
Sun 08:31:50 AM 41.9647 -87.9114 89° East 129 148 800 -197 Descending Chicago Center

Login

Don't have an account? Register now (free) for customized features, flight alerts, and more!